sensor_id;sensor_type;location;lat;lon;timestamp;temperature;humidity
78325;DHT22;67584;51.400;6.692;2023-03-04T00:01:15;5.00;67.10
78325;DHT22;67584;51.400;6.692;2023-03-04T00:03:41;5.00;67.90
78325;DHT22;67584;51.400;6.692;2023-03-04T00:06:07;5.20;68.40
78325;DHT22;67584;51.400;6.692;2023-03-04T00:08:33;5.00;68.00
78325;DHT22;67584;51.400;6.692;2023-03-04T00:10:59;5.00;68.10
78325;DHT22;67584;51.400;6.692;2023-03-04T00:13:25;5.10;68.00
78325;DHT22;67584;51.400;6.692;2023-03-04T00:15:51;5.00;67.80
78325;DHT22;67584;51.400;6.692;2023-03-04T00:18:18;4.80;68.70
78325;DHT22;67584;51.400;6.692;2023-03-04T00:20:45;5.00;68.10
78325;DHT22;67584;51.400;6.692;2023-03-04T00:23:12;5.10;68.20
78325;DHT22;67584;51.400;6.692;2023-03-04T00:25:37;4.90;68.30
78325;DHT22;67584;51.400;6.692;2023-03-04T00:28:03;4.90;68.50
78325;DHT22;67584;51.400;6.692;2023-03-04T00:30:30;5.10;68.40
78325;DHT22;67584;51.400;6.692;2023-03-04T00:32:56;5.00;68.40
78325;DHT22;67584;51.400;6.692;2023-03-04T00:35:22;5.10;68.00
78325;DHT22;67584;51.400;6.692;2023-03-04T00:37:48;5.10;68.40
78325;DHT22;67584;51.400;6.692;2023-03-04T00:40:15;4.90;68.60
78325;DHT22;67584;51.400;6.692;2023-03-04T00:42:41;5.00;68.80
78325;DHT22;67584;51.400;6.692;2023-03-04T00:45:07;4.90;68.40
78325;DHT22;67584;51.400;6.692;2023-03-04T00:47:33;4.90;68.40
78325;DHT22;67584;51.400;6.692;2023-03-04T00:50:00;4.80;68.10
78325;DHT22;67584;51.400;6.692;2023-03-04T00:52:26;5.00;68.70
78325;DHT22;67584;51.400;6.692;2023-03-04T00:54:52;5.10;69.30
78325;DHT22;67584;51.400;6.692;2023-03-04T00:57:17;4.90;69.10
78325;DHT22;67584;51.400;6.692;2023-03-04T00:59:43;4.70;69.10
78325;DHT22;67584;51.400;6.692;2023-03-04T01:02:11;5.00;68.90
78325;DHT22;67584;51.400;6.692;2023-03-04T01:04:37;4.80;69.40
78325;DHT22;67584;51.400;6.692;2023-03-04T01:07:03;4.90;69.80
78325;DHT22;67584;51.400;6.692;2023-03-04T01:09:30;4.90;69.70
78325;DHT22;67584;51.400;6.692;2023-03-04T01:11:56;4.90;69.50
78325;DHT22;67584;51.400;6.692;2023-03-04T01:14:22;5.00;69.80
78325;DHT22;67584;51.400;6.692;2023-03-04T01:16:48;4.90;69.70
78325;DHT22;67584;51.400;6.692;2023-03-04T01:19:14;4.80;69.40
78325;DHT22;67584;51.400;6.692;2023-03-04T01:21:41;4.90;70.10
78325;DHT22;67584;51.400;6.692;2023-03-04T01:24:07;4.80;69.90
78325;DHT22;67584;51.400;6.692;2023-03-04T01:26:32;4.80;69.80
78325;DHT22;67584;51.400;6.692;2023-03-04T01:28:58;4.90;70.20
78325;DHT22;67584;51.400;6.692;2023-03-04T01:31:24;5.00;70.10
78325;DHT22;67584;51.400;6.692;2023-03-04T01:33:51;4.90;70.50
78325;DHT22;67584;51.400;6.692;2023-03-04T01:36:17;4.90;71.00
78325;DHT22;67584;51.400;6.692;2023-03-04T01:38:42;4.80;70.60
78325;DHT22;67584;51.400;6.692;2023-03-04T01:41:09;4.90;70.90
78325;DHT22;67584;51.400;6.692;2023-03-04T01:43:36;4.80;70.60
78325;DHT22;67584;51.400;6.692;2023-03-04T01:46:03;5.10;70.00
78325;DHT22;67584;51.400;6.692;2023-03-04T01:48:34;4.90;70.50
78325;DHT22;67584;51.400;6.692;2023-03-04T01:51:03;4.90;70.50
78325;DHT22;67584;51.400;6.692;2023-03-04T01:53:30;4.90;71.20
78325;DHT22;67584;51.400;6.692;2023-03-04T01:56:01;4.70;70.60
78325;DHT22;67584;51.400;6.692;2023-03-04T01:58:30;5.00;70.80
78325;DHT22;67584;51.400;6.692;2023-03-04T02:00:57;4.60;71.00
78325;DHT22;67584;51.400;6.692;2023-03-04T02:03:23;5.00;70.60
78325;DHT22;67584;51.400;6.692;2023-03-04T02:05:51;4.90;71.10
78325;DHT22;67584;51.400;6.692;2023-03-04T02:08:19;4.80;71.60
78325;DHT22;67584;51.400;6.692;2023-03-04T02:10:46;4.90;71.60
78325;DHT22;67584;51.400;6.692;2023-03-04T02:13:13;4.90;70.90
78325;DHT22;67584;51.400;6.692;2023-03-04T02:15:40;4.70;71.50
78325;DHT22;67584;51.400;6.692;2023-03-04T02:18:17;4.70;71.50
78325;DHT22;67584;51.400;6.692;2023-03-04T02:26:16;5.00;71.60
78325;DHT22;67584;51.400;6.692;2023-03-04T02:28:44;5.00;71.60
78325;DHT22;67584;51.400;6.692;2023-03-04T02:31:25;4.90;71.20
78325;DHT22;67584;51.400;6.692;2023-03-04T02:33:54;4.80;71.40
78325;DHT22;67584;51.400;6.692;2023-03-04T02:36:21;4.90;71.30
78325;DHT22;67584;51.400;6.692;2023-03-04T02:38:49;5.00;71.30
78325;DHT22;67584;51.400;6.692;2023-03-04T02:41:19;4.80;71.50
78325;DHT22;67584;51.400;6.692;2023-03-04T02:43:48;4.80;71.60
78325;DHT22;67584;51.400;6.692;2023-03-04T02:46:14;4.70;71.00
78325;DHT22;67584;51.400;6.692;2023-03-04T02:48:40;5.00;70.80
78325;DHT22;67584;51.400;6.692;2023-03-04T02:51:06;4.90;70.70
78325;DHT22;67584;51.400;6.692;2023-03-04T02:53:32;4.90;70.70
78325;DHT22;67584;51.400;6.692;2023-03-04T02:55:58;4.90;70.60
78325;DHT22;67584;51.400;6.692;2023-03-04T02:58:28;4.90;70.40
78325;DHT22;67584;51.400;6.692;2023-03-04T03:00:54;5.10;70.40
78325;DHT22;67584;51.400;6.692;2023-03-04T03:03:20;5.10;70.40
78325;DHT22;67584;51.400;6.692;2023-03-04T03:05:46;5.00;70.40
78325;DHT22;67584;51.400;6.692;2023-03-04T03:08:12;5.00;70.30
78325;DHT22;67584;51.400;6.692;2023-03-04T03:10:39;4.90;70.70
78325;DHT22;67584;51.400;6.692;2023-03-04T03:13:05;5.00;70.30
78325;DHT22;67584;51.400;6.692;2023-03-04T03:15:32;4.90;70.30
78325;DHT22;67584;51.400;6.692;2023-03-04T03:17:58;5.10;70.20
78325;DHT22;67584;51.400;6.692;2023-03-04T03:20:24;5.00;70.20
78325;DHT22;67584;51.400;6.692;2023-03-04T03:22:50;4.90;69.80
78325;DHT22;67584;51.400;6.692;2023-03-04T03:25:16;4.80;69.90
78325;DHT22;67584;51.400;6.692;2023-03-04T03:27:42;5.00;70.00
78325;DHT22;67584;51.400;6.692;2023-03-04T03:30:13;5.10;70.30
78325;DHT22;67584;51.400;6.692;2023-03-04T03:32:39;5.00;70.50
78325;DHT22;67584;51.400;6.692;2023-03-04T03:35:06;5.00;70.60
78325;DHT22;67584;51.400;6.692;2023-03-04T03:37:32;4.90;70.60
78325;DHT22;67584;51.400;6.692;2023-03-04T03:39:58;5.00;70.40
78325;DHT22;67584;51.400;6.692;2023-03-04T03:42:24;5.10;70.60
78325;DHT22;67584;51.400;6.692;2023-03-04T03:44:49;5.00;70.70
78325;DHT22;67584;51.400;6.692;2023-03-04T03:47:15;5.10;70.80
78325;DHT22;67584;51.400;6.692;2023-03-04T03:49:41;4.90;70.80
78325;DHT22;67584;51.400;6.692;2023-03-04T03:52:07;4.90;70.60
78325;DHT22;67584;51.400;6.692;2023-03-04T03:54:33;5.00;70.60
78325;DHT22;67584;51.400;6.692;2023-03-04T03:56:59;5.10;70.50
78325;DHT22;67584;51.400;6.692;2023-03-04T03:59:25;5.10;70.50
78325;DHT22;67584;51.400;6.692;2023-03-04T04:01:50;5.00;70.60
78325;DHT22;67584;51.400;6.692;2023-03-04T04:04:16;5.10;70.80
78325;DHT22;67584;51.400;6.692;2023-03-04T04:06:42;5.00;70.60
78325;DHT22;67584;51.400;6.692;2023-03-04T04:09:08;5.10;70.90
78325;DHT22;67584;51.400;6.692;2023-03-04T04:11:33;5.10;70.80
78325;DHT22;67584;51.400;6.692;2023-03-04T04:13:59;5.00;71.30
78325;DHT22;67584;51.400;6.692;2023-03-04T04:16:25;5.00;70.90
78325;DHT22;67584;51.400;6.692;2023-03-04T04:18:51;5.10;70.80
78325;DHT22;67584;51.400;6.692;2023-03-04T04:21:16;5.00;71.20
78325;DHT22;67584;51.400;6.692;2023-03-04T04:23:42;5.00;70.80
78325;DHT22;67584;51.400;6.692;2023-03-04T04:26:08;5.10;71.10
78325;DHT22;67584;51.400;6.692;2023-03-04T04:28:34;5.00;70.80
78325;DHT22;67584;51.400;6.692;2023-03-04T04:30:59;5.10;70.80
78325;DHT22;67584;51.400;6.692;2023-03-04T04:33:25;4.80;71.20
78325;DHT22;67584;51.400;6.692;2023-03-04T04:35:51;5.00;71.20
78325;DHT22;67584;51.400;6.692;2023-03-04T04:38:17;5.00;71.00
78325;DHT22;67584;51.400;6.692;2023-03-04T04:40:43;5.10;71.50
78325;DHT22;67584;51.400;6.692;2023-03-04T04:43:09;4.90;71.70
78325;DHT22;67584;51.400;6.692;2023-03-04T04:45:34;4.90;71.90
78325;DHT22;67584;51.400;6.692;2023-03-04T04:48:03;5.10;71.70
78325;DHT22;67584;51.400;6.692;2023-03-04T04:50:29;5.00;71.80
78325;DHT22;67584;51.400;6.692;2023-03-04T04:52:55;5.00;71.80
78325;DHT22;67584;51.400;6.692;2023-03-04T04:55:21;5.10;71.60
78325;DHT22;67584;51.400;6.692;2023-03-04T04:57:47;5.10;71.40
78325;DHT22;67584;51.400;6.692;2023-03-04T05:00:13;5.00;71.10
78325;DHT22;67584;51.400;6.692;2023-03-04T05:02:39;5.10;70.80
78325;DHT22;67584;51.400;6.692;2023-03-04T05:05:06;5.20;70.90
78325;DHT22;67584;51.400;6.692;2023-03-04T05:07:33;5.00;70.90
78325;DHT22;67584;51.400;6.692;2023-03-04T05:09:59;4.90;71.10
78325;DHT22;67584;51.400;6.692;2023-03-04T05:12:24;5.00;70.70
78325;DHT22;67584;51.400;6.692;2023-03-04T05:14:50;5.10;71.10
78325;DHT22;67584;51.400;6.692;2023-03-04T05:17:16;5.00;71.40
78325;DHT22;67584;51.400;6.692;2023-03-04T05:19:42;4.80;71.10
78325;DHT22;67584;51.400;6.692;2023-03-04T05:22:07;5.10;71.70
78325;DHT22;67584;51.400;6.692;2023-03-04T05:24:33;5.00;71.60
78325;DHT22;67584;51.400;6.692;2023-03-04T05:27:00;5.10;71.80
78325;DHT22;67584;51.400;6.692;2023-03-04T05:29:26;4.90;71.70
78325;DHT22;67584;51.400;6.692;2023-03-04T05:31:51;5.10;72.20
78325;DHT22;67584;51.400;6.692;2023-03-04T05:34:17;5.00;71.70
78325;DHT22;67584;51.400;6.692;2023-03-04T05:36:43;4.90;72.00
78325;DHT22;67584;51.400;6.692;2023-03-04T05:39:09;5.00;72.20
78325;DHT22;67584;51.400;6.692;2023-03-04T05:41:35;5.00;71.90
78325;DHT22;67584;51.400;6.692;2023-03-04T05:44:00;4.80;72.10
78325;DHT22;67584;51.400;6.692;2023-03-04T05:46:26;4.90;72.00
78325;DHT22;67584;51.400;6.692;2023-03-04T05:48:53;5.00;71.70
78325;DHT22;67584;51.400;6.692;2023-03-04T05:51:19;4.90;71.70
78325;DHT22;67584;51.400;6.692;2023-03-04T05:53:45;4.90;71.80
78325;DHT22;67584;51.400;6.692;2023-03-04T05:56:14;4.90;71.70
78325;DHT22;67584;51.400;6.692;2023-03-04T05:58:40;4.90;71.60
78325;DHT22;67584;51.400;6.692;2023-03-04T06:01:06;5.00;71.70
78325;DHT22;67584;51.400;6.692;2023-03-04T06:03:33;5.00;71.90
78325;DHT22;67584;51.400;6.692;2023-03-04T06:05:59;4.90;71.80
78325;DHT22;67584;51.400;6.692;2023-03-04T06:08:25;4.90;72.10
78325;DHT22;67584;51.400;6.692;2023-03-04T06:10:53;4.90;71.80
78325;DHT22;67584;51.400;6.692;2023-03-04T06:13:19;5.00;72.20
78325;DHT22;67584;51.400;6.692;2023-03-04T06:15:46;5.00;72.20
78325;DHT22;67584;51.400;6.692;2023-03-04T06:18:12;5.10;71.90
78325;DHT22;67584;51.400;6.692;2023-03-04T06:20:38;4.90;72.10
78325;DHT22;67584;51.400;6.692;2023-03-04T06:23:04;5.10;72.00
78325;DHT22;67584;51.400;6.692;2023-03-04T06:25:30;4.90;71.90
78325;DHT22;67584;51.400;6.692;2023-03-04T06:27:56;4.90;71.70
78325;DHT22;67584;51.400;6.692;2023-03-04T06:30:22;5.00;72.10
78325;DHT22;67584;51.400;6.692;2023-03-04T06:32:48;5.00;71.90
78325;DHT22;67584;51.400;6.692;2023-03-04T06:35:15;5.10;72.20
78325;DHT22;67584;51.400;6.692;2023-03-04T06:37:41;5.20;72.00
78325;DHT22;67584;51.400;6.692;2023-03-04T06:40:08;5.10;71.90
78325;DHT22;67584;51.400;6.692;2023-03-04T06:42:35;5.00;72.00
78325;DHT22;67584;51.400;6.692;2023-03-04T06:45:02;4.90;72.00
78325;DHT22;67584;51.400;6.692;2023-03-04T06:47:28;5.10;72.20
78325;DHT22;67584;51.400;6.692;2023-03-04T06:49:54;5.00;72.00
78325;DHT22;67584;51.400;6.692;2023-03-04T06:52:20;5.00;72.30
78325;DHT22;67584;51.400;6.692;2023-03-04T06:54:46;5.10;72.00
78325;DHT22;67584;51.400;6.692;2023-03-04T06:57:12;5.20;72.30
78325;DHT22;67584;51.400;6.692;2023-03-04T06:59:38;4.90;72.60
78325;DHT22;67584;51.400;6.692;2023-03-04T07:02:05;5.20;72.30
78325;DHT22;67584;51.400;6.692;2023-03-04T07:04:31;5.20;72.50
78325;DHT22;67584;51.400;6.692;2023-03-04T07:06:57;5.30;72.90
78325;DHT22;67584;51.400;6.692;2023-03-04T07:09:22;5.30;72.70
78325;DHT22;67584;51.400;6.692;2023-03-04T07:11:48;5.10;73.00
78325;DHT22;67584;51.400;6.692;2023-03-04T07:14:14;5.30;72.90
78325;DHT22;67584;51.400;6.692;2023-03-04T07:16:40;5.30;72.80
78325;DHT22;67584;51.400;6.692;2023-03-04T07:19:05;5.20;73.60
78325;DHT22;67584;51.400;6.692;2023-03-04T07:21:32;5.30;73.10
78325;DHT22;67584;51.400;6.692;2023-03-04T07:23:57;5.40;72.90
78325;DHT22;67584;51.400;6.692;2023-03-04T07:26:23;5.30;73.30
78325;DHT22;67584;51.400;6.692;2023-03-04T07:28:49;5.50;72.80
78325;DHT22;67584;51.400;6.692;2023-03-04T07:31:23;5.50;72.90
78325;DHT22;67584;51.400;6.692;2023-03-04T07:33:50;5.50;72.70
78325;DHT22;67584;51.400;6.692;2023-03-04T07:36:16;5.60;72.80
78325;DHT22;67584;51.400;6.692;2023-03-04T07:38:45;5.80;72.90
78325;DHT22;67584;51.400;6.692;2023-03-04T07:41:12;5.80;72.60
78325;DHT22;67584;51.400;6.692;2023-03-04T07:43:37;5.80;73.70
78325;DHT22;67584;51.400;6.692;2023-03-04T07:46:03;5.80;73.40
78325;DHT22;67584;51.400;6.692;2023-03-04T07:48:29;5.80;73.00
78325;DHT22;67584;51.400;6.692;2023-03-04T07:51:22;5.90;74.00
78325;DHT22;67584;51.400;6.692;2023-03-04T07:53:50;5.90;73.40
78325;DHT22;67584;51.400;6.692;2023-03-04T07:56:22;6.10;73.00
78325;DHT22;67584;51.400;6.692;2023-03-04T07:58:48;6.30;72.60
78325;DHT22;67584;51.400;6.692;2023-03-04T08:01:17;6.40;72.90
78325;DHT22;67584;51.400;6.692;2023-03-04T08:03:43;6.60;73.00
78325;DHT22;67584;51.400;6.692;2023-03-04T08:06:11;6.60;73.50
78325;DHT22;67584;51.400;6.692;2023-03-04T08:08:38;6.60;72.60
78325;DHT22;67584;51.400;6.692;2023-03-04T08:11:19;6.70;74.30
78325;DHT22;67584;51.400;6.692;2023-03-04T08:13:45;6.60;74.20
78325;DHT22;67584;51.400;6.692;2023-03-04T08:16:16;6.60;73.20
78325;DHT22;67584;51.400;6.692;2023-03-04T08:18:48;6.50;73.20
78325;DHT22;67584;51.400;6.692;2023-03-04T08:21:16;6.20;73.00
78325;DHT22;67584;51.400;6.692;2023-03-04T08:23:44;6.40;73.30
78325;DHT22;67584;51.400;6.692;2023-03-04T08:26:19;6.40;73.30
78325;DHT22;67584;51.400;6.692;2023-03-04T08:28:46;6.90;72.80
78325;DHT22;67584;51.400;6.692;2023-03-04T08:31:12;7.10;71.20
78325;DHT22;67584;51.400;6.692;2023-03-04T08:33:39;7.40;70.30
78325;DHT22;67584;51.400;6.692;2023-03-04T08:36:05;7.40;69.70
78325;DHT22;67584;51.400;6.692;2023-03-04T08:38:31;7.60;69.40
78325;DHT22;67584;51.400;6.692;2023-03-04T08:40:57;7.50;69.10
78325;DHT22;67584;51.400;6.692;2023-03-04T08:43:24;7.80;68.30
78325;DHT22;67584;51.400;6.692;2023-03-04T08:45:51;7.70;68.20
78325;DHT22;67584;51.400;6.692;2023-03-04T08:48:17;7.80;67.90
78325;DHT22;67584;51.400;6.692;2023-03-04T08:50:44;7.40;68.90
78325;DHT22;67584;51.400;6.692;2023-03-04T08:53:10;7.50;69.10
78325;DHT22;67584;51.400;6.692;2023-03-04T08:55:38;7.70;68.90
78325;DHT22;67584;51.400;6.692;2023-03-04T08:58:05;7.80;69.00
78325;DHT22;67584;51.400;6.692;2023-03-04T09:00:35;7.70;69.60
78325;DHT22;67584;51.400;6.692;2023-03-04T09:03:02;7.90;68.80
78325;DHT22;67584;51.400;6.692;2023-03-04T09:05:29;8.30;68.00
78325;DHT22;67584;51.400;6.692;2023-03-04T09:07:55;8.60;66.60
78325;DHT22;67584;51.400;6.692;2023-03-04T09:10:21;8.50;66.60
78325;DHT22;67584;51.400;6.692;2023-03-04T09:12:47;8.30;67.20
78325;DHT22;67584;51.400;6.692;2023-03-04T09:15:13;8.40;67.00
78325;DHT22;67584;51.400;6.692;2023-03-04T09:17:39;8.30;67.10
78325;DHT22;67584;51.400;6.692;2023-03-04T09:20:12;8.20;67.20
78325;DHT22;67584;51.400;6.692;2023-03-04T09:22:38;8.10;67.60
78325;DHT22;67584;51.400;6.692;2023-03-04T09:25:05;8.00;68.60
78325;DHT22;67584;51.400;6.692;2023-03-04T09:27:31;7.80;68.70
78325;DHT22;67584;51.400;6.692;2023-03-04T09:29:57;7.90;69.40
78325;DHT22;67584;51.400;6.692;2023-03-04T09:32:23;8.10;68.50
78325;DHT22;67584;51.400;6.692;2023-03-04T09:34:49;8.50;68.00
78325;DHT22;67584;51.400;6.692;2023-03-04T09:37:15;9.00;67.00
78325;DHT22;67584;51.400;6.692;2023-03-04T09:39:41;9.50;65.40
78325;DHT22;67584;51.400;6.692;2023-03-04T09:42:17;10.10;63.60
78325;DHT22;67584;51.400;6.692;2023-03-04T09:44:46;10.60;61.60
78325;DHT22;67584;51.400;6.692;2023-03-04T09:47:15;10.90;60.20
78325;DHT22;67584;51.400;6.692;2023-03-04T09:49:44;10.60;59.80
78325;DHT22;67584;51.400;6.692;2023-03-04T09:55:22;10.00;61.80
78325;DHT22;67584;51.400;6.692;2023-03-04T09:58:05;11.50;58.40
78325;DHT22;67584;51.400;6.692;2023-03-04T10:00:48;12.50;55.60
78325;DHT22;67584;51.400;6.692;2023-03-04T10:03:24;12.10;56.70
78325;DHT22;67584;51.400;6.692;2023-03-04T10:05:56;11.20;57.10
78325;DHT22;67584;51.400;6.692;2023-03-04T10:11:17;11.40;57.70
78325;DHT22;67584;51.400;6.692;2023-03-04T10:16:49;10.90;58.40
78325;DHT22;67584;51.400;6.692;2023-03-04T10:22:46;10.70;57.60
78325;DHT22;67584;51.400;6.692;2023-03-04T10:25:19;9.90;60.50
78325;DHT22;67584;51.400;6.692;2023-03-04T10:27:55;9.40;63.20
78325;DHT22;67584;51.400;6.692;2023-03-04T10:30:38;9.00;64.20
78325;DHT22;67584;51.400;6.692;2023-03-04T10:33:20;8.60;65.60
78325;DHT22;67584;51.400;6.692;2023-03-04T10:36:05;9.20;65.50
78325;DHT22;67584;51.400;6.692;2023-03-04T10:38:38;10.80;59.90
78325;DHT22;67584;51.400;6.692;2023-03-04T10:41:12;11.90;57.70
78325;DHT22;67584;51.400;6.692;2023-03-04T10:43:40;12.70;55.90
78325;DHT22;67584;51.400;6.692;2023-03-04T10:46:12;12.80;54.30
78325;DHT22;67584;51.400;6.692;2023-03-04T10:48:45;12.80;55.00
78325;DHT22;67584;51.400;6.692;2023-03-04T10:51:22;12.60;55.10
78325;DHT22;67584;51.400;6.692;2023-03-04T10:57:04;10.40;59.70
78325;DHT22;67584;51.400;6.692;2023-03-04T10:59:44;10.10;60.80
78325;DHT22;67584;51.400;6.692;2023-03-04T11:02:27;10.20;60.70
78325;DHT22;67584;51.400;6.692;2023-03-04T11:10:22;9.80;62.00
78325;DHT22;67584;51.400;6.692;2023-03-04T11:12:58;9.80;62.20
78325;DHT22;67584;51.400;6.692;2023-03-04T11:15:26;10.20;61.20
78325;DHT22;67584;51.400;6.692;2023-03-04T11:18:16;10.50;59.90
78325;DHT22;67584;51.400;6.692;2023-03-04T11:20:46;10.60;59.40
78325;DHT22;67584;51.400;6.692;2023-03-04T11:23:26;10.50;59.90
78325;DHT22;67584;51.400;6.692;2023-03-04T11:26:02;10.40;60.30
78325;DHT22;67584;51.400;6.692;2023-03-04T11:28:52;10.30;61.50
78325;DHT22;67584;51.400;6.692;2023-03-04T11:34:12;10.20;60.70
78325;DHT22;67584;51.400;6.692;2023-03-04T11:39:40;9.70;62.40
78325;DHT22;67584;51.400;6.692;2023-03-04T11:42:30;9.50;63.60
78325;DHT22;67584;51.400;6.692;2023-03-04T11:44:58;9.30;64.00
78325;DHT22;67584;51.400;6.692;2023-03-04T11:53:07;9.40;64.70
78325;DHT22;67584;51.400;6.692;2023-03-04T11:55:44;9.90;63.60
78325;DHT22;67584;51.400;6.692;2023-03-04T11:58:22;10.40;61.60
78325;DHT22;67584;51.400;6.692;2023-03-04T12:04:07;10.80;60.90
78325;DHT22;67584;51.400;6.692;2023-03-04T12:29:45;9.90;63.90
78325;DHT22;67584;51.400;6.692;2023-03-04T12:40:29;9.40;65.20
78325;DHT22;67584;51.400;6.692;2023-03-04T12:43:07;9.20;65.80
78325;DHT22;67584;51.400;6.692;2023-03-04T12:45:58;9.10;67.60
78325;DHT22;67584;51.400;6.692;2023-03-04T12:48:35;9.20;66.70
78325;DHT22;67584;51.400;6.692;2023-03-04T12:54:01;9.20;66.20
78325;DHT22;67584;51.400;6.692;2023-03-04T12:56:50;9.10;67.20
78325;DHT22;67584;51.400;6.692;2023-03-04T12:59:20;8.70;68.10
78325;DHT22;67584;51.400;6.692;2023-03-04T13:07:38;8.00;74.50
78325;DHT22;67584;51.400;6.692;2023-03-04T13:10:26;8.10;73.70
78325;DHT22;67584;51.400;6.692;2023-03-04T13:13:00;8.50;71.90
78325;DHT22;67584;51.400;6.692;2023-03-04T13:15:36;8.90;71.20
78325;DHT22;67584;51.400;6.692;2023-03-04T13:18:43;9.20;69.90
78325;DHT22;67584;51.400;6.692;2023-03-04T13:23:38;9.70;68.90
78325;DHT22;67584;51.400;6.692;2023-03-04T13:26:16;9.60;68.60
78325;DHT22;67584;51.400;6.692;2023-03-04T13:28:43;9.50;68.20
78325;DHT22;67584;51.400;6.692;2023-03-04T13:36:07;9.00;70.00
78325;DHT22;67584;51.400;6.692;2023-03-04T13:39:40;9.10;69.60
78325;DHT22;67584;51.400;6.692;2023-03-04T13:41:49;9.00;69.50
78325;DHT22;67584;51.400;6.692;2023-03-04T13:47:39;8.80;72.00
78325;DHT22;67584;51.400;6.692;2023-03-04T13:50:33;8.80;71.40
78325;DHT22;67584;51.400;6.692;2023-03-04T13:56:07;8.80;71.10
78325;DHT22;67584;51.400;6.692;2023-03-04T13:58:35;8.90;70.80
78325;DHT22;67584;51.400;6.692;2023-03-04T14:01:17;8.80;71.20
78325;DHT22;67584;51.400;6.692;2023-03-04T14:03:47;8.70;72.30
78325;DHT22;67584;51.400;6.692;2023-03-04T14:06:15;8.60;72.70
78325;DHT22;67584;51.400;6.692;2023-03-04T14:08:43;8.60;73.00
78325;DHT22;67584;51.400;6.692;2023-03-04T14:11:14;8.80;72.40
78325;DHT22;67584;51.400;6.692;2023-03-04T14:13:41;9.20;71.90
78325;DHT22;67584;51.400;6.692;2023-03-04T14:16:08;9.20;71.90
78325;DHT22;67584;51.400;6.692;2023-03-04T14:18:34;9.20;72.10
78325;DHT22;67584;51.400;6.692;2023-03-04T14:21:00;9.10;72.40
78325;DHT22;67584;51.400;6.692;2023-03-04T14:23:34;9.10;74.50
78325;DHT22;67584;51.400;6.692;2023-03-04T14:26:14;9.00;73.20
78325;DHT22;67584;51.400;6.692;2023-03-04T14:28:48;9.20;73.50
78325;DHT22;67584;51.400;6.692;2023-03-04T14:31:17;9.20;72.80
78325;DHT22;67584;51.400;6.692;2023-03-04T14:33:48;9.40;72.60
78325;DHT22;67584;51.400;6.692;2023-03-04T14:36:21;9.70;72.40
78325;DHT22;67584;51.400;6.692;2023-03-04T14:38:57;9.80;71.20
78325;DHT22;67584;51.400;6.692;2023-03-04T14:41:38;9.90;71.00
78325;DHT22;67584;51.400;6.692;2023-03-04T14:46:47;9.80;69.80
78325;DHT22;67584;51.400;6.692;2023-03-04T14:49:14;9.70;70.10
78325;DHT22;67584;51.400;6.692;2023-03-04T14:51:52;9.50;70.80
78325;DHT22;67584;51.400;6.692;2023-03-04T14:56:58;9.10;71.30
78325;DHT22;67584;51.400;6.692;2023-03-04T14:59:34;8.90;71.90
78325;DHT22;67584;51.400;6.692;2023-03-04T15:02:28;8.70;72.70
78325;DHT22;67584;51.400;6.692;2023-03-04T15:05:08;8.60;72.80
78325;DHT22;67584;51.400;6.692;2023-03-04T15:07:35;8.50;72.90
78325;DHT22;67584;51.400;6.692;2023-03-04T15:10:06;8.40;73.30
78325;DHT22;67584;51.400;6.692;2023-03-04T15:12:34;8.40;73.40
78325;DHT22;67584;51.400;6.692;2023-03-04T15:18:27;8.20;74.10
78325;DHT22;67584;51.400;6.692;2023-03-04T15:23:31;8.10;73.90
78325;DHT22;67584;51.400;6.692;2023-03-04T15:26:02;8.10;74.30
78325;DHT22;67584;51.400;6.692;2023-03-04T15:28:39;8.00;74.00
78325;DHT22;67584;51.400;6.692;2023-03-04T15:31:15;8.00;74.40
78325;DHT22;67584;51.400;6.692;2023-03-04T15:33:41;8.10;74.30
78325;DHT22;67584;51.400;6.692;2023-03-04T15:36:11;8.20;74.10
78325;DHT22;67584;51.400;6.692;2023-03-04T15:38:40;8.10;74.30
78325;DHT22;67584;51.400;6.692;2023-03-04T15:41:09;8.00;74.60
78325;DHT22;67584;51.400;6.692;2023-03-04T15:43:36;8.10;74.20
78325;DHT22;67584;51.400;6.692;2023-03-04T15:46:02;7.90;74.70
78325;DHT22;67584;51.400;6.692;2023-03-04T15:48:28;7.70;74.70
78325;DHT22;67584;51.400;6.692;2023-03-04T15:50:59;8.00;74.40
78325;DHT22;67584;51.400;6.692;2023-03-04T15:55:53;7.80;73.40
78325;DHT22;67584;51.400;6.692;2023-03-04T15:58:19;7.80;73.20
78325;DHT22;67584;51.400;6.692;2023-03-04T16:00:45;7.80;72.60
78325;DHT22;67584;51.400;6.692;2023-03-04T16:03:16;7.80;72.60
78325;DHT22;67584;51.400;6.692;2023-03-04T16:05:44;7.70;72.50
78325;DHT22;67584;51.400;6.692;2023-03-04T16:08:13;7.70;72.50
78325;DHT22;67584;51.400;6.692;2023-03-04T16:10:39;7.70;72.20
78325;DHT22;67584;51.400;6.692;2023-03-04T16:13:15;7.70;72.30
78325;DHT22;67584;51.400;6.692;2023-03-04T16:15:41;7.60;72.20
78325;DHT22;67584;51.400;6.692;2023-03-04T16:18:08;7.50;72.20
78325;DHT22;67584;51.400;6.692;2023-03-04T16:20:35;7.70;72.00
78325;DHT22;67584;51.400;6.692;2023-03-04T16:23:01;7.60;72.00
78325;DHT22;67584;51.400;6.692;2023-03-04T16:25:28;7.60;71.90
78325;DHT22;67584;51.400;6.692;2023-03-04T16:27:56;7.40;72.00
78325;DHT22;67584;51.400;6.692;2023-03-04T16:30:26;7.50;71.60
78325;DHT22;67584;51.400;6.692;2023-03-04T16:32:52;7.40;71.70
78325;DHT22;67584;51.400;6.692;2023-03-04T16:35:19;7.70;71.50
78325;DHT22;67584;51.400;6.692;2023-03-04T16:37:45;7.60;71.60
78325;DHT22;67584;51.400;6.692;2023-03-04T16:40:14;7.70;71.20
78325;DHT22;67584;51.400;6.692;2023-03-04T16:42:40;7.50;71.20
78325;DHT22;67584;51.400;6.692;2023-03-04T16:45:17;7.40;71.20
78325;DHT22;67584;51.400;6.692;2023-03-04T16:47:43;7.40;71.10
78325;DHT22;67584;51.400;6.692;2023-03-04T16:50:22;7.60;70.90
78325;DHT22;67584;51.400;6.692;2023-03-04T16:52:52;7.40;70.10
78325;DHT22;67584;51.400;6.692;2023-03-04T16:55:27;7.40;70.30
78325;DHT22;67584;51.400;6.692;2023-03-04T16:57:55;7.40;69.60
78325;DHT22;67584;51.400;6.692;2023-03-04T17:00:24;7.30;68.80
78325;DHT22;67584;51.400;6.692;2023-03-04T17:02:59;7.40;68.20
78325;DHT22;67584;51.400;6.692;2023-03-04T17:05:28;7.30;68.40
78325;DHT22;67584;51.400;6.692;2023-03-04T17:07:54;7.20;67.80
78325;DHT22;67584;51.400;6.692;2023-03-04T17:10:20;7.10;67.90
78325;DHT22;67584;51.400;6.692;2023-03-04T17:12:46;7.10;68.00
78325;DHT22;67584;51.400;6.692;2023-03-04T17:15:13;7.20;68.50
78325;DHT22;67584;51.400;6.692;2023-03-04T17:17:40;7.20;67.70
78325;DHT22;67584;51.400;6.692;2023-03-04T17:20:07;7.20;67.60
78325;DHT22;67584;51.400;6.692;2023-03-04T17:22:34;7.00;67.60
78325;DHT22;67584;51.400;6.692;2023-03-04T17:25:00;6.90;67.80
78325;DHT22;67584;51.400;6.692;2023-03-04T17:27:28;7.00;67.60
78325;DHT22;67584;51.400;6.692;2023-03-04T17:29:54;6.70;68.10
78325;DHT22;67584;51.400;6.692;2023-03-04T17:32:20;6.90;68.40
78325;DHT22;67584;51.400;6.692;2023-03-04T17:34:46;6.90;68.30
78325;DHT22;67584;51.400;6.692;2023-03-04T17:37:12;6.90;68.30
78325;DHT22;67584;51.400;6.692;2023-03-04T17:39:38;6.80;68.20
78325;DHT22;67584;51.400;6.692;2023-03-04T17:42:05;6.70;68.60
78325;DHT22;67584;51.400;6.692;2023-03-04T17:44:31;6.90;68.50